Terminal Aerodrome Forecast
Issued by NWS Norman, OK

Home | Current Version | Previous Version | Text Only | Print | Product List | Glossary On
Versions: 1 2 3 4 5 6 7 8 9 10 11 12 13 14 15 16 17 18 19 20 21 22 23 24
000
FTUS44 KOUN 161122
TAFOKC
TAF
KOKC 161122Z 1612/1712 VRB04KT P6SM SCT015 BKN050
      TEMPO 1612/1614 4SM BR
     FM162100 16008KT P6SM BKN050
     FM170100 17008KT P6SM SCT060 BKN250=

USA.gov is the U.S. government's official web portal to all federal, state and local government web resources and services.